sensor_id;sensor_type;location;lat;lon;timestamp;pressure;altitude;pressure_sealevel;temperature;humidity
40574;BME280;26283;49.020;8.644;2023-04-16T00:01:47;99273.88;;;14.31;56.04
40574;BME280;26283;49.020;8.644;2023-04-16T00:04:12;99272.22;;;14.30;56.01
40574;BME280;26283;49.020;8.644;2023-04-16T00:06:38;99272.22;;;14.30;56.02
40574;BME280;26283;49.020;8.644;2023-04-16T00:09:03;99266.81;;;14.30;56.04
40574;BME280;26283;49.020;8.644;2023-04-16T00:11:28;99269.53;;;14.30;56.06
40574;BME280;26283;49.020;8.644;2023-04-16T00:13:54;99276.84;;;14.30;56.10
40574;BME280;26283;49.020;8.644;2023-04-16T00:16:19;99269.78;;;14.29;56.11
40574;BME280;26283;49.020;8.644;2023-04-16T00:18:44;99277.94;;;14.29;56.12
40574;BME280;26283;49.020;8.644;2023-04-16T00:21:10;99271.91;;;14.27;56.14
40574;BME280;26283;49.020;8.644;2023-04-16T00:23:36;99282.75;;;14.27;56.16
40574;BME280;26283;49.020;8.644;2023-04-16T00:26:02;99276.53;;;14.26;56.19
40574;BME280;26283;49.020;8.644;2023-04-16T00:28:27;99280.28;;;14.25;56.20
40574;BME280;26283;49.020;8.644;2023-04-16T00:30:53;99273.00;;;14.26;56.21
40574;BME280;26283;49.020;8.644;2023-04-16T00:33:19;99283.00;;;14.25;56.25
40574;BME280;26283;49.020;8.644;2023-04-16T00:35:45;99275.94;;;14.24;56.27
40574;BME280;26283;49.020;8.644;2023-04-16T00:38:11;99279.47;;;14.25;56.28
40574;BME280;26283;49.020;8.644;2023-04-16T00:40:36;99277.00;;;14.23;56.31
40574;BME280;26283;49.020;8.644;2023-04-16T00:43:02;99278.66;;;14.24;56.34
40574;BME280;26283;49.020;8.644;2023-04-16T00:45:27;99286.19;;;14.22;56.35
40574;BME280;26283;49.020;8.644;2023-04-16T00:47:53;99283.47;;;14.22;56.35
40574;BME280;26283;49.020;8.644;2023-04-16T00:50:19;99284.31;;;14.23;56.40
40574;BME280;26283;49.020;8.644;2023-04-16T00:52:46;99285.37;;;14.22;56.44
40574;BME280;26283;49.020;8.644;2023-04-16T00:55:12;99280.19;;;14.20;56.44
40574;BME280;26283;49.020;8.644;2023-04-16T00:57:39;99282.91;;;14.20;56.44
40574;BME280;26283;49.020;8.644;2023-04-16T01:00:05;99281.25;;;14.19;56.48
40574;BME280;26283;49.020;8.644;2023-04-16T01:02:32;99277.47;;;14.20;56.48
40574;BME280;26283;49.020;8.644;2023-04-16T01:04:59;99278.53;;;14.19;56.48
40574;BME280;26283;49.020;8.644;2023-04-16T01:07:24;99282.31;;;14.18;56.48
40574;BME280;26283;49.020;8.644;2023-04-16T01:09:50;99278.78;;;14.18;56.47
40574;BME280;26283;49.020;8.644;2023-04-16T01:12:15;99282.31;;;14.18;56.49
40574;BME280;26283;49.020;8.644;2023-04-16T01:14:40;99283.38;;;14.17;56.53
40574;BME280;26283;49.020;8.644;2023-04-16T01:17:06;99287.97;;;14.17;56.53
40574;BME280;26283;49.020;8.644;2023-04-16T01:19:31;99286.31;;;14.16;56.54
40574;BME280;26283;49.020;8.644;2023-04-16T01:22:00;99284.44;;;14.16;56.59
40574;BME280;26283;49.020;8.644;2023-04-16T01:24:26;99282.78;;;14.15;56.64
40574;BME280;26283;49.020;8.644;2023-04-16T01:26:51;99284.69;;;14.15;56.65
40574;BME280;26283;49.020;8.644;2023-04-16T01:29:16;99286.56;;;14.14;56.66
40574;BME280;26283;49.020;8.644;2023-04-16T01:31:42;99289.28;;;14.14;56.68
40574;BME280;26283;49.020;8.644;2023-04-16T01:34:07;99293.03;;;14.13;56.69
40574;BME280;26283;49.020;8.644;2023-04-16T01:36:33;99288.44;;;14.14;56.71
40574;BME280;26283;49.020;8.644;2023-04-16T01:38:58;99286.81;;;14.13;56.73
40574;BME280;26283;49.020;8.644;2023-04-16T01:41:23;99292.22;;;14.13;56.76
40574;BME280;26283;49.020;8.644;2023-04-16T01:43:49;99287.88;;;14.12;56.75
40574;BME280;26283;49.020;8.644;2023-04-16T01:46:18;99297.06;;;14.11;56.74
40574;BME280;26283;49.020;8.644;2023-04-16T01:48:45;99303.31;;;14.11;56.78
40574;BME280;26283;49.020;8.644;2023-04-16T01:51:10;99298.94;;;14.10;56.78
40574;BME280;26283;49.020;8.644;2023-04-16T01:53:36;99304.38;;;14.10;56.77
40574;BME280;26283;49.020;8.644;2023-04-16T01:56:01;99294.59;;;14.09;56.79
40574;BME280;26283;49.020;8.644;2023-04-16T01:58:27;99301.91;;;14.08;56.79
40574;BME280;26283;49.020;8.644;2023-04-16T02:00:54;99304.59;;;14.08;56.76
40574;BME280;26283;49.020;8.644;2023-04-16T02:03:20;99301.06;;;14.08;56.77
40574;BME280;26283;49.020;8.644;2023-04-16T02:05:45;99307.59;;;14.07;56.78
40574;BME280;26283;49.020;8.644;2023-04-16T02:08:11;99305.66;;;14.07;56.78
40574;BME280;26283;49.020;8.644;2023-04-16T02:10:37;99303.22;;;14.06;56.79
40574;BME280;26283;49.020;8.644;2023-04-16T02:13:02;99305.94;;;14.06;56.82
40574;BME280;26283;49.020;8.644;2023-04-16T02:15:27;99308.66;;;14.06;56.83
40574;BME280;26283;49.020;8.644;2023-04-16T02:17:53;99314.06;;;14.06;56.82
40574;BME280;26283;49.020;8.644;2023-04-16T02:20:20;99300.75;;;14.04;56.84
40574;BME280;26283;49.020;8.644;2023-04-16T02:22:46;99312.41;;;14.05;56.83
40574;BME280;26283;49.020;8.644;2023-04-16T02:25:11;99308.06;;;14.04;56.87
40574;BME280;26283;49.020;8.644;2023-04-16T02:27:38;99304.53;;;14.03;56.88
40574;BME280;26283;49.020;8.644;2023-04-16T02:30:04;99313.47;;;14.04;56.86
40574;BME280;26283;49.020;8.644;2023-04-16T02:32:29;99311.84;;;14.03;56.83
40574;BME280;26283;49.020;8.644;2023-04-16T02:34:55;99308.28;;;14.02;56.84
40574;BME280;26283;49.020;8.644;2023-04-16T02:37:21;99311.00;;;14.02;56.87
40574;BME280;26283;49.020;8.644;2023-04-16T02:39:47;99314.78;;;14.01;56.88
40574;BME280;26283;49.020;8.644;2023-04-16T02:42:14;99316.66;;;14.01;56.88
40574;BME280;26283;49.020;8.644;2023-04-16T02:44:40;99314.78;;;14.01;56.90
40574;BME280;26283;49.020;8.644;2023-04-16T02:47:05;99316.66;;;14.01;56.88
40574;BME280;26283;49.020;8.644;2023-04-16T02:49:31;99318.78;;;13.99;56.91
40574;BME280;26283;49.020;8.644;2023-04-16T02:51:56;99313.38;;;13.99;56.91
40574;BME280;26283;49.020;8.644;2023-04-16T02:54:22;99319.59;;;13.99;56.92
40574;BME280;26283;49.020;8.644;2023-04-16T02:56:47;99313.38;;;13.99;56.92
40574;BME280;26283;49.020;8.644;2023-04-16T02:59:12;99312.78;;;13.97;56.94
40574;BME280;26283;49.020;8.644;2023-04-16T03:01:38;99312.53;;;13.98;56.99
40574;BME280;26283;49.020;8.644;2023-04-16T03:04:03;99314.66;;;13.96;57.02
40574;BME280;26283;49.020;8.644;2023-04-16T03:06:29;99318.19;;;13.97;57.04
40574;BME280;26283;49.020;8.644;2023-04-16T03:08:55;99316.53;;;13.96;57.06
40574;BME280;26283;49.020;8.644;2023-04-16T03:11:20;99320.91;;;13.97;57.07
40574;BME280;26283;49.020;8.644;2023-04-16T03:13:46;99320.09;;;13.96;57.08
40574;BME280;26283;49.020;8.644;2023-04-16T03:16:11;99319.25;;;13.96;57.09
40574;BME280;26283;49.020;8.644;2023-04-16T03:18:36;99317.63;;;13.95;57.11
40574;BME280;26283;49.020;8.644;2023-04-16T03:21:02;99315.97;;;13.94;57.12
40574;BME280;26283;49.020;8.644;2023-04-16T03:23:27;99326.81;;;13.94;57.14
40574;BME280;26283;49.020;8.644;2023-04-16T03:25:53;99325.16;;;13.93;57.16
40574;BME280;26283;49.020;8.644;2023-04-16T03:28:18;99323.25;;;13.93;57.14
40574;BME280;26283;49.020;8.644;2023-04-16T03:30:51;99335.16;;;13.92;57.17
40574;BME280;26283;49.020;8.644;2023-04-16T03:33:18;99339.75;;;13.92;57.17
40574;BME280;26283;49.020;8.644;2023-04-16T03:35:43;99338.94;;;13.91;57.18
40574;BME280;26283;49.020;8.644;2023-04-16T03:38:09;99341.88;;;13.90;57.23
40574;BME280;26283;49.020;8.644;2023-04-16T03:40:34;99343.53;;;13.91;57.24
40574;BME280;26283;49.020;8.644;2023-04-16T03:42:59;99347.28;;;13.90;57.24
40574;BME280;26283;49.020;8.644;2023-04-16T03:45:25;99340.22;;;13.89;57.27
40574;BME280;26283;49.020;8.644;2023-04-16T03:47:50;99342.94;;;13.89;57.27
40574;BME280;26283;49.020;8.644;2023-04-16T03:50:19;99340.22;;;13.89;57.27
40574;BME280;26283;49.020;8.644;2023-04-16T03:52:45;99347.75;;;13.87;57.29
40574;BME280;26283;49.020;8.644;2023-04-16T03:55:13;99344.81;;;13.88;57.30
40574;BME280;26283;49.020;8.644;2023-04-16T03:57:38;99342.34;;;13.87;57.29
40574;BME280;26283;49.020;8.644;2023-04-16T04:00:04;99341.53;;;13.86;57.28
40574;BME280;26283;49.020;8.644;2023-04-16T04:02:30;99346.13;;;13.86;57.27
40574;BME280;26283;49.020;8.644;2023-04-16T04:04:55;99339.91;;;13.85;57.29
40574;BME280;26283;49.020;8.644;2023-04-16T04:07:21;99343.41;;;13.86;57.29
40574;BME280;26283;49.020;8.644;2023-04-16T04:09:46;99345.31;;;13.85;57.28
40574;BME280;26283;49.020;8.644;2023-04-16T04:12:11;99344.50;;;13.85;57.34
40574;BME280;26283;49.020;8.644;2023-04-16T04:14:37;99344.50;;;13.85;57.38
40574;BME280;26283;49.020;8.644;2023-04-16T04:17:04;99348.28;;;13.84;57.38
40574;BME280;26283;49.020;8.644;2023-04-16T04:19:30;99351.81;;;13.84;57.38
40574;BME280;26283;49.020;8.644;2023-04-16T04:21:55;99348.28;;;13.84;57.40
40574;BME280;26283;49.020;8.644;2023-04-16T04:24:20;99354.75;;;13.83;57.39
40574;BME280;26283;49.020;8.644;2023-04-16T04:26:46;99349.31;;;13.83;57.36
40574;BME280;26283;49.020;8.644;2023-04-16T04:29:12;99363.69;;;13.83;57.36
40574;BME280;26283;49.020;8.644;2023-04-16T04:31:37;99358.50;;;13.82;57.39
40574;BME280;26283;49.020;8.644;2023-04-16T04:34:03;99361.22;;;13.82;57.43
40574;BME280;26283;49.020;8.644;2023-04-16T04:36:28;99363.09;;;13.81;57.42
40574;BME280;26283;49.020;8.644;2023-04-16T04:38:53;99368.75;;;13.80;57.43
40574;BME280;26283;49.020;8.644;2023-04-16T04:41:19;99373.12;;;13.81;57.44
40574;BME280;26283;49.020;8.644;2023-04-16T04:43:45;99376.87;;;13.80;57.44
40574;BME280;26283;49.020;8.644;2023-04-16T04:46:11;99371.47;;;13.80;57.47
40574;BME280;26283;49.020;8.644;2023-04-16T04:48:36;99378.53;;;13.81;57.45
40574;BME280;26283;49.020;8.644;2023-04-16T04:51:01;99381.47;;;13.79;57.49
40574;BME280;26283;49.020;8.644;2023-04-16T04:53:28;99380.66;;;13.79;57.51
40574;BME280;26283;49.020;8.644;2023-04-16T04:55:54;99388.19;;;13.77;57.51
40574;BME280;26283;49.020;8.644;2023-04-16T04:58:19;99381.72;;;13.78;57.53
40574;BME280;26283;49.020;8.644;2023-04-16T05:00:44;99397.13;;;13.77;57.53
40574;BME280;26283;49.020;8.644;2023-04-16T05:03:10;99382.78;;;13.77;57.52
40574;BME280;26283;49.020;8.644;2023-04-16T05:05:38;99394.66;;;13.76;57.54
40574;BME280;26283;49.020;8.644;2023-04-16T05:08:03;99400.06;;;13.76;57.57
40574;BME280;26283;49.020;8.644;2023-04-16T05:10:28;99398.44;;;13.75;57.61
40574;BME280;26283;49.020;8.644;2023-04-16T05:12:54;99403.84;;;13.75;57.62
40574;BME280;26283;49.020;8.644;2023-04-16T05:15:19;99411.97;;;13.75;57.63
40574;BME280;26283;49.020;8.644;2023-04-16T05:17:45;99406.78;;;13.73;57.62
40574;BME280;26283;49.020;8.644;2023-04-16T05:20:10;99413.03;;;13.73;57.64
40574;BME280;26283;49.020;8.644;2023-04-16T05:22:36;99412.22;;;13.73;57.66
40574;BME280;26283;49.020;8.644;2023-04-16T05:25:01;99407.63;;;13.73;57.68
40574;BME280;26283;49.020;8.644;2023-04-16T05:27:26;99410.56;;;13.72;57.69
40574;BME280;26283;49.020;8.644;2023-04-16T05:29:52;99414.31;;;13.71;57.74
40574;BME280;26283;49.020;8.644;2023-04-16T05:32:17;99412.44;;;13.71;57.77
40574;BME280;26283;49.020;8.644;2023-04-16T05:34:42;99414.31;;;13.71;57.75
40574;BME280;26283;49.020;8.644;2023-04-16T05:37:08;99418.91;;;13.70;57.77
40574;BME280;26283;49.020;8.644;2023-04-16T05:39:33;99418.31;;;13.68;57.79
40574;BME280;26283;49.020;8.644;2023-04-16T05:41:58;99428.09;;;13.69;57.79
40574;BME280;26283;49.020;8.644;2023-04-16T05:44:24;99430.81;;;13.69;57.79
40574;BME280;26283;49.020;8.644;2023-04-16T05:46:50;99433.50;;;13.69;57.81
40574;BME280;26283;49.020;8.644;2023-04-16T05:49:15;99435.63;;;13.67;57.84
40574;BME280;26283;49.020;8.644;2023-04-16T05:51:42;99444.56;;;13.68;57.82
40574;BME280;26283;49.020;8.644;2023-04-16T05:54:08;99441.88;;;13.68;57.85
40574;BME280;26283;49.020;8.644;2023-04-16T05:56:33;99442.69;;;13.68;57.92
40574;BME280;26283;49.020;8.644;2023-04-16T05:58:58;99449.16;;;13.67;57.92
40574;BME280;26283;49.020;8.644;2023-04-16T06:01:24;99450.22;;;13.66;57.95
40574;BME280;26283;49.020;8.644;2023-04-16T06:03:49;99455.62;;;13.66;57.96
40574;BME280;26283;49.020;8.644;2023-04-16T06:06:15;99452.34;;;13.64;57.97
40574;BME280;26283;49.020;8.644;2023-04-16T06:08:40;99456.69;;;13.65;58.00
40574;BME280;26283;49.020;8.644;2023-04-16T06:11:05;99458.59;;;13.65;58.02
40574;BME280;26283;49.020;8.644;2023-04-16T06:13:31;99460.47;;;13.64;58.03
40574;BME280;26283;49.020;8.644;2023-04-16T06:15:56;99462.38;;;13.64;58.01
40574;BME280;26283;49.020;8.644;2023-04-16T06:18:21;99461.56;;;13.63;58.06
40574;BME280;26283;49.020;8.644;2023-04-16T06:20:47;99466.16;;;13.63;58.10
40574;BME280;26283;49.020;8.644;2023-04-16T06:23:12;99459.91;;;13.62;58.10
40574;BME280;26283;49.020;8.644;2023-04-16T06:25:38;99457.19;;;13.62;58.12
40574;BME280;26283;49.020;8.644;2023-04-16T06:28:03;99463.66;;;13.61;58.14
40574;BME280;26283;49.020;8.644;2023-04-16T06:30:28;99460.97;;;13.61;58.18
40574;BME280;26283;49.020;8.644;2023-04-16T06:32:54;99464.72;;;13.60;58.23
40574;BME280;26283;49.020;8.644;2023-04-16T06:35:19;99462.00;;;13.60;58.23
40574;BME280;26283;49.020;8.644;2023-04-16T06:37:45;99461.19;;;13.60;58.22
40574;BME280;26283;49.020;8.644;2023-04-16T06:40:11;99465.78;;;13.59;58.22
40574;BME280;26283;49.020;8.644;2023-04-16T06:42:36;99470.38;;;13.59;58.24
40574;BME280;26283;49.020;8.644;2023-04-16T06:45:02;99465.78;;;13.59;58.23
40574;BME280;26283;49.020;8.644;2023-04-16T06:47:27;99469.53;;;13.58;58.25
40574;BME280;26283;49.020;8.644;2023-04-16T06:49:53;99474.13;;;13.58;58.29
40574;BME280;26283;49.020;8.644;2023-04-16T06:52:18;99475.19;;;13.57;58.30
40574;BME280;26283;49.020;8.644;2023-04-16T06:54:43;99478.97;;;13.56;58.25
40574;BME280;26283;49.020;8.644;2023-04-16T06:57:09;99478.72;;;13.57;58.24
40574;BME280;26283;49.020;8.644;2023-04-16T06:59:35;99483.31;;;13.57;58.30
40574;BME280;26283;49.020;8.644;2023-04-16T07:02:00;99477.91;;;13.57;58.28
40574;BME280;26283;49.020;8.644;2023-04-16T07:04:26;99487.06;;;13.56;58.23
40574;BME280;26283;49.020;8.644;2023-04-16T07:06:51;99485.44;;;13.55;58.23
40574;BME280;26283;49.020;8.644;2023-04-16T07:09:16;99487.06;;;13.56;58.26
40574;BME280;26283;49.020;8.644;2023-04-16T07:11:42;99490.84;;;13.55;58.29
40574;BME280;26283;49.020;8.644;2023-04-16T07:14:08;99485.44;;;13.55;58.34
40574;BME280;26283;49.020;8.644;2023-04-16T07:16:33;99486.47;;;13.54;58.39
40574;BME280;26283;49.020;8.644;2023-04-16T07:18:59;99490.00;;;13.54;58.38
40574;BME280;26283;49.020;8.644;2023-04-16T07:21:24;99493.78;;;13.53;58.42
40574;BME280;26283;49.020;8.644;2023-04-16T07:23:50;99494.59;;;13.54;58.46
40574;BME280;26283;49.020;8.644;2023-04-16T07:26:15;99496.47;;;13.53;58.47
40574;BME280;26283;49.020;8.644;2023-04-16T07:28:40;99498.37;;;13.53;58.52
40574;BME280;26283;49.020;8.644;2023-04-16T07:31:06;99499.19;;;13.53;58.54
40574;BME280;26283;49.020;8.644;2023-04-16T07:33:32;99500.25;;;13.52;58.57
40574;BME280;26283;49.020;8.644;2023-04-16T07:35:57;99496.72;;;13.52;58.63
40574;BME280;26283;49.020;8.644;2023-04-16T07:38:23;99498.59;;;13.51;58.63
40574;BME280;26283;49.020;8.644;2023-04-16T07:40:48;99518.38;;;13.52;58.97
40574;BME280;26283;49.020;8.644;2023-04-16T07:43:14;99522.03;;;13.57;58.68
40574;BME280;26283;49.020;8.644;2023-04-16T07:45:40;99528.87;;;13.60;58.52
40574;BME280;26283;49.020;8.644;2023-04-16T07:48:06;99524.28;;;13.60;58.47
40574;BME280;26283;49.020;8.644;2023-04-16T07:50:31;99529.47;;;13.62;58.45
40574;BME280;26283;49.020;8.644;2023-04-16T07:52:56;99528.66;;;13.61;58.46
40574;BME280;26283;49.020;8.644;2023-04-16T07:55:22;99525.94;;;13.61;58.47
40574;BME280;26283;49.020;8.644;2023-04-16T07:57:47;99537.84;;;13.60;58.47
40574;BME280;26283;49.020;8.644;2023-04-16T08:00:13;99535.13;;;13.60;58.49
40574;BME280;26283;49.020;8.644;2023-04-16T08:02:39;99534.31;;;13.60;58.49
40574;BME280;26283;49.020;8.644;2023-04-16T08:05:05;99537.84;;;13.60;58.50
40574;BME280;26283;49.020;8.644;2023-04-16T08:07:30;99531.81;;;13.58;58.51
40574;BME280;26283;49.020;8.644;2023-04-16T08:09:55;99536.19;;;13.59;58.51
40574;BME280;26283;49.020;8.644;2023-04-16T08:12:21;99541.00;;;13.57;58.53
40574;BME280;26283;49.020;8.644;2023-04-16T08:14:46;99538.53;;;13.56;58.53
40574;BME280;26283;49.020;8.644;2023-04-16T08:17:13;99543.72;;;13.57;58.53
40574;BME280;26283;49.020;8.644;2023-04-16T08:19:38;99534.75;;;13.57;58.53
40574;BME280;26283;49.020;8.644;2023-04-16T08:22:04;99543.13;;;13.55;58.53
40574;BME280;26283;49.020;8.644;2023-04-16T08:24:29;99546.41;;;13.57;58.53
40574;BME280;26283;49.020;8.644;2023-04-16T08:26:55;99546.66;;;13.56;58.52
40574;BME280;26283;49.020;8.644;2023-04-16T08:29:20;99551.22;;;13.55;58.52
40574;BME280;26283;49.020;8.644;2023-04-16T08:31:46;99562.06;;;13.55;58.52
40574;BME280;26283;49.020;8.644;2023-04-16T08:34:11;99555.81;;;13.55;58.52
40574;BME280;26283;49.020;8.644;2023-04-16T08:36:37;99563.94;;;13.55;58.51
40574;BME280;26283;49.020;8.644;2023-04-16T08:39:02;99559.59;;;13.54;58.51
40574;BME280;26283;49.020;8.644;2023-04-16T08:41:33;99569.59;;;13.53;58.50
40574;BME280;26283;49.020;8.644;2023-04-16T08:44:06;99568.53;;;13.54;58.51
40574;BME280;26283;49.020;8.644;2023-04-16T08:46:36;99574.19;;;13.53;58.50
40574;BME280;26283;49.020;8.644;2023-04-16T08:49:05;99575.00;;;13.53;58.49
40574;BME280;26283;49.020;8.644;2023-04-16T08:51:33;99580.41;;;13.53;58.49
40574;BME280;26283;49.020;8.644;2023-04-16T08:54:03;99582.06;;;13.54;58.49
40574;BME280;26283;49.020;8.644;2023-04-16T08:56:30;99581.47;;;13.52;58.48
40574;BME280;26283;49.020;8.644;2023-04-16T08:58:56;99586.88;;;13.52;58.48
40574;BME280;26283;49.020;8.644;2023-04-16T09:01:23;99588.78;;;13.52;58.48
40574;BME280;26283;49.020;8.644;2023-04-16T09:03:49;99586.06;;;13.52;58.48
40574;BME280;26283;49.020;8.644;2023-04-16T09:06:16;99591.25;;;13.53;58.46
40574;BME280;26283;49.020;8.644;2023-04-16T09:08:45;99586.88;;;13.52;58.46
40574;BME280;26283;49.020;8.644;2023-04-16T09:11:12;99586.88;;;13.52;58.45
40574;BME280;26283;49.020;8.644;2023-04-16T09:13:38;99585.84;;;13.53;58.44
40574;BME280;26283;49.020;8.644;2023-04-16T09:16:05;99589.59;;;13.52;58.43
40574;BME280;26283;49.020;8.644;2023-04-16T09:18:31;99595.00;;;13.52;58.42
40574;BME280;26283;49.020;8.644;2023-04-16T09:20:56;99589.59;;;13.52;58.42
40574;BME280;26283;49.020;8.644;2023-04-16T09:23:22;99599.59;;;13.52;58.41
40574;BME280;26283;49.020;8.644;2023-04-16T09:25:49;99603.13;;;13.52;58.41
40574;BME280;26283;49.020;8.644;2023-04-16T09:28:41;99593.34;;;13.51;58.41
40574;BME280;26283;49.020;8.644;2023-04-16T09:31:08;99593.34;;;13.51;58.45
40574;BME280;26283;49.020;8.644;2023-04-16T09:33:33;99592.31;;;13.52;58.39
40574;BME280;26283;49.020;8.644;2023-04-16T09:35:59;99601.47;;;13.51;58.38
40574;BME280;26283;49.020;8.644;2023-04-16T09:38:25;99603.38;;;13.51;58.39
40574;BME280;26283;49.020;8.644;2023-04-16T09:41:05;99601.47;;;13.51;58.38
40574;BME280;26283;49.020;8.644;2023-04-16T09:43:31;99606.06;;;13.51;58.41
40574;BME280;26283;49.020;8.644;2023-04-16T09:45:56;99601.47;;;13.51;58.37
40574;BME280;26283;49.020;8.644;2023-04-16T09:48:32;99613.13;;;13.52;58.38
40574;BME280;26283;49.020;8.644;2023-04-16T09:50:59;99610.66;;;13.50;58.38
40574;BME280;26283;49.020;8.644;2023-04-16T09:53:29;99607.94;;;13.50;58.35
40574;BME280;26283;49.020;8.644;2023-04-16T09:55:59;99606.28;;;13.49;58.36
40574;BME280;26283;49.020;8.644;2023-04-16T09:58:25;99607.13;;;13.50;58.36
40574;BME280;26283;49.020;8.644;2023-04-16T10:01:01;99610.66;;;13.50;58.35
40574;BME280;26283;49.020;8.644;2023-04-16T10:03:33;99616.06;;;13.50;58.36
40574;BME280;26283;49.020;8.644;2023-04-16T10:08:30;99612.53;;;13.50;58.34
40574;BME280;26283;49.020;8.644;2023-04-16T10:10:56;99618.78;;;13.50;58.33
40574;BME280;26283;49.020;8.644;2023-04-16T10:13:22;99618.78;;;13.50;58.33
40574;BME280;26283;49.020;8.644;2023-04-16T10:15:49;99625.25;;;13.49;58.31
40574;BME280;26283;49.020;8.644;2023-04-16T10:18:15;99626.91;;;13.50;58.31
40574;BME280;26283;49.020;8.644;2023-04-16T10:20:42;99626.06;;;13.50;58.31
40574;BME280;26283;49.020;8.644;2023-04-16T10:23:08;99629.63;;;13.50;58.31
40574;BME280;26283;49.020;8.644;2023-04-16T10:25:34;99635.03;;;13.50;58.30
40574;BME280;26283;49.020;8.644;2023-04-16T10:28:01;99635.84;;;13.51;58.30
40574;BME280;26283;49.020;8.644;2023-04-16T10:30:27;99630.66;;;13.49;58.29
40574;BME280;26283;49.020;8.644;2023-04-16T10:32:52;99633.97;;;13.51;58.28
40574;BME280;26283;49.020;8.644;2023-04-16T10:35:18;99639.62;;;13.50;58.27
40574;BME280;26283;49.020;8.644;2023-04-16T10:37:44;99627.97;;;13.49;58.26
40574;BME280;26283;49.020;8.644;2023-04-16T10:40:22;99629.63;;;13.50;58.25
40574;BME280;26283;49.020;8.644;2023-04-16T10:42:58;99627.97;;;13.49;58.26
40574;BME280;26283;49.020;8.644;2023-04-16T10:45:36;99634.19;;;13.50;58.26
40574;BME280;26283;49.020;8.644;2023-04-16T10:48:05;99638.78;;;13.49;58.26
40574;BME280;26283;49.020;8.644;2023-04-16T10:50:35;99640.66;;;13.49;58.23
40574;BME280;26283;49.020;8.644;2023-04-16T10:53:17;99642.53;;;13.48;58.23
40574;BME280;26283;49.020;8.644;2023-04-16T10:58:30;99644.19;;;13.49;58.24
40574;BME280;26283;49.020;8.644;2023-04-16T11:01:00;99644.44;;;13.48;58.21
40574;BME280;26283;49.020;8.644;2023-04-16T11:03:34;99646.31;;;13.47;58.22
40574;BME280;26283;49.020;8.644;2023-04-16T11:06:18;99646.91;;;13.49;58.24
40574;BME280;26283;49.020;8.644;2023-04-16T11:08:50;99641.72;;;13.48;58.23
40574;BME280;26283;49.020;8.644;2023-04-16T11:11:17;99644.44;;;13.48;58.18
40574;BME280;26283;49.020;8.644;2023-04-16T11:13:43;99642.53;;;13.48;58.20
40574;BME280;26283;49.020;8.644;2023-04-16T11:16:13;99650.66;;;13.48;58.19
40574;BME280;26283;49.020;8.644;2023-04-16T11:18:39;99642.53;;;13.48;58.18
40574;BME280;26283;49.020;8.644;2023-04-16T11:21:09;99654.22;;;13.49;58.18
40574;BME280;26283;49.020;8.644;2023-04-16T11:23:45;99653.38;;;13.48;58.17
40574;BME280;26283;49.020;8.644;2023-04-16T11:26:23;99642.53;;;13.48;58.17
40574;BME280;26283;49.020;8.644;2023-04-16T11:28:49;99652.31;;;13.49;58.15
40574;BME280;26283;49.020;8.644;2023-04-16T11:31:14;99642.53;;;13.48;58.13
40574;BME280;26283;49.020;8.644;2023-04-16T11:33:41;99653.38;;;13.48;58.13
40574;BME280;26283;49.020;8.644;2023-04-16T11:36:06;99659.63;;;13.49;58.13
40574;BME280;26283;49.020;8.644;2023-04-16T11:38:36;99648.78;;;13.49;58.13
40574;BME280;26283;49.020;8.644;2023-04-16T11:41:02;99647.97;;;13.48;58.12
40574;BME280;26283;49.020;8.644;2023-04-16T11:43:28;99651.50;;;13.49;58.10
40574;BME280;26283;49.020;8.644;2023-04-16T11:46:04;99653.38;;;13.48;58.10
40574;BME280;26283;49.020;8.644;2023-04-16T11:48:50;99653.38;;;13.48;58.11
40574;BME280;26283;49.020;8.644;2023-04-16T11:51:16;99647.12;;;13.48;58.11
40574;BME280;26283;49.020;8.644;2023-04-16T11:53:46;99649.00;;;13.47;58.07
40574;BME280;26283;49.020;8.644;2023-04-16T11:56:12;99652.56;;;13.48;58.09
40574;BME280;26283;49.020;8.644;2023-04-16T11:58:37;99651.94;;;13.46;58.08
40574;BME280;26283;49.020;8.644;2023-04-16T12:01:02;99656.91;;;13.49;58.07
40574;BME280;26283;49.020;8.644;2023-04-16T12:03:41;99658.78;;;13.48;58.07
40574;BME280;26283;49.020;8.644;2023-04-16T12:06:10;99656.91;;;13.49;58.08
40574;BME280;26283;49.020;8.644;2023-04-16T12:08:36;99659.63;;;13.49;58.04
40574;BME280;26283;49.020;8.644;2023-04-16T12:11:01;99657.13;;;13.47;58.05
40574;BME280;26283;49.020;8.644;2023-04-16T12:13:27;99650.06;;;13.46;58.05
40574;BME280;26283;49.020;8.644;2023-04-16T12:15:54;99658.78;;;13.48;58.03
40574;BME280;26283;49.020;8.644;2023-04-16T12:18:22;99658.78;;;13.48;58.03
40574;BME280;26283;49.020;8.644;2023-04-16T12:20:48;99654.22;;;13.49;58.02
40574;BME280;26283;49.020;8.644;2023-04-16T12:25:48;99656.91;;;13.49;58.02
40574;BME280;26283;49.020;8.644;2023-04-16T12:28:14;99664.22;;;13.48;58.00
40574;BME280;26283;49.020;8.644;2023-04-16T12:30:50;99660.69;;;13.48;58.00
40574;BME280;26283;49.020;8.644;2023-04-16T12:33:17;99656.91;;;13.49;57.98
40574;BME280;26283;49.020;8.644;2023-04-16T12:35:43;99665.87;;;13.49;57.97
40574;BME280;26283;49.020;8.644;2023-04-16T12:38:09;99664.22;;;13.48;57.97
40574;BME280;26283;49.020;8.644;2023-04-16T12:40:35;99661.50;;;13.48;57.96
40574;BME280;26283;49.020;8.644;2023-04-16T12:43:01;99661.50;;;13.48;57.96
40574;BME280;26283;49.020;8.644;2023-04-16T12:45:26;99663.38;;;13.48;57.95
40574;BME280;26283;49.020;8.644;2023-04-16T12:47:52;99664.22;;;13.48;57.94
40574;BME280;26283;49.020;8.644;2023-04-16T12:50:17;99675.03;;;13.48;57.94
40574;BME280;26283;49.020;8.644;2023-04-16T12:52:43;99661.50;;;13.48;57.93
40574;BME280;26283;49.020;8.644;2023-04-16T12:55:08;99660.69;;;13.48;57.93
40574;BME280;26283;49.020;8.644;2023-04-16T12:57:34;99664.22;;;13.48;57.92
40574;BME280;26283;49.020;8.644;2023-04-16T13:00:00;99664.22;;;13.48;57.93
40574;BME280;26283;49.020;8.644;2023-04-16T13:02:25;99668.78;;;13.48;57.91
40574;BME280;26283;49.020;8.644;2023-04-16T13:04:52;99663.38;;;13.48;57.91